sensor_id;sensor_type;location;lat;lon;timestamp;P1;durP1;ratioP1;P2;durP2;ratioP2
33814;SDS011;20121;51.910;8.406;2023-08-17T00:01:39;3.30;;;1.90;;
33814;SDS011;20121;51.910;8.406;2023-08-17T00:04:04;1.77;;;1.30;;
33814;SDS011;20121;51.910;8.406;2023-08-17T00:06:30;2.77;;;1.93;;
33814;SDS011;20121;51.910;8.406;2023-08-17T00:08:56;3.50;;;2.30;;
33814;SDS011;20121;51.910;8.406;2023-08-17T00:11:21;5.00;;;1.77;;
33814;SDS011;20121;51.910;8.406;2023-08-17T00:13:47;2.60;;;2.40;;
33814;SDS011;20121;51.910;8.406;2023-08-17T00:16:13;1.37;;;1.23;;
33814;SDS011;20121;51.910;8.406;2023-08-17T00:18:38;2.13;;;1.87;;
33814;SDS011;20121;51.910;8.406;2023-08-17T00:21:04;2.03;;;1.83;;
33814;SDS011;20121;51.910;8.406;2023-08-17T00:23:29;1.60;;;1.50;;
33814;SDS011;20121;51.910;8.406;2023-08-17T00:25:55;2.27;;;1.70;;
33814;SDS011;20121;51.910;8.406;2023-08-17T00:28:21;2.10;;;2.00;;
33814;SDS011;20121;51.910;8.406;2023-08-17T00:30:46;2.50;;;2.03;;
33814;SDS011;20121;51.910;8.406;2023-08-17T00:33:12;8.23;;;2.35;;
33814;SDS011;20121;51.910;8.406;2023-08-17T00:35:38;2.37;;;1.83;;
33814;SDS011;20121;51.910;8.406;2023-08-17T00:38:03;1.83;;;1.70;;
33814;SDS011;20121;51.910;8.406;2023-08-17T00:40:29;2.13;;;1.80;;
33814;SDS011;20121;51.910;8.406;2023-08-17T00:42:55;2.90;;;2.23;;
33814;SDS011;20121;51.910;8.406;2023-08-17T00:45:21;2.17;;;1.80;;
33814;SDS011;20121;51.910;8.406;2023-08-17T00:47:48;1.90;;;1.80;;
33814;SDS011;20121;51.910;8.406;2023-08-17T00:50:14;2.90;;;1.80;;
33814;SDS011;20121;51.910;8.406;2023-08-17T00:52:41;2.78;;;2.25;;
33814;SDS011;20121;51.910;8.406;2023-08-17T00:55:07;2.80;;;2.58;;
33814;SDS011;20121;51.910;8.406;2023-08-17T00:57:34;4.75;;;3.25;;
33814;SDS011;20121;51.910;8.406;2023-08-17T01:00:01;1.63;;;1.50;;
33814;SDS011;20121;51.910;8.406;2023-08-17T01:02:29;1.50;;;1.40;;
33814;SDS011;20121;51.910;8.406;2023-08-17T01:04:55;1.95;;;1.55;;
33814;SDS011;20121;51.910;8.406;2023-08-17T01:07:21;7.27;;;2.17;;
33814;SDS011;20121;51.910;8.406;2023-08-17T01:09:46;2.60;;;2.40;;
33814;SDS011;20121;51.910;8.406;2023-08-17T01:15:19;2.55;;;2.03;;
33814;SDS011;20121;51.910;8.406;2023-08-17T01:18:00;1.60;;;1.50;;
33814;SDS011;20121;51.910;8.406;2023-08-17T01:20:40;2.42;;;1.60;;
33814;SDS011;20121;51.910;8.406;2023-08-17T01:23:06;1.98;;;1.80;;
33814;SDS011;20121;51.910;8.406;2023-08-17T01:25:32;1.30;;;1.03;;
33814;SDS011;20121;51.910;8.406;2023-08-17T01:28:01;1.80;;;1.70;;
33814;SDS011;20121;51.910;8.406;2023-08-17T01:30:28;2.08;;;1.98;;
33814;SDS011;20121;51.910;8.406;2023-08-17T01:33:03;2.42;;;2.00;;
33814;SDS011;20121;51.910;8.406;2023-08-17T01:35:39;2.08;;;1.88;;
33814;SDS011;20121;51.910;8.406;2023-08-17T01:38:14;2.67;;;1.92;;
33814;SDS011;20121;51.910;8.406;2023-08-17T01:40:43;2.95;;;2.75;;
33814;SDS011;20121;51.910;8.406;2023-08-17T01:43:12;3.30;;;2.65;;
33814;SDS011;20121;51.910;8.406;2023-08-17T01:45:39;1.85;;;1.75;;
33814;SDS011;20121;51.910;8.406;2023-08-17T01:48:05;1.70;;;1.60;;
33814;SDS011;20121;51.910;8.406;2023-08-17T01:50:32;2.58;;;2.20;;
33814;SDS011;20121;51.910;8.406;2023-08-17T01:52:58;1.40;;;1.30;;
33814;SDS011;20121;51.910;8.406;2023-08-17T01:55:23;1.70;;;1.60;;
33814;SDS011;20121;51.910;8.406;2023-08-17T01:57:49;2.43;;;1.73;;
33814;SDS011;20121;51.910;8.406;2023-08-17T02:00:15;1.57;;;1.37;;
33814;SDS011;20121;51.910;8.406;2023-08-17T02:02:41;4.63;;;2.15;;
33814;SDS011;20121;51.910;8.406;2023-08-17T02:05:07;3.53;;;1.80;;
33814;SDS011;20121;51.910;8.406;2023-08-17T02:07:33;3.88;;;2.97;;
33814;SDS011;20121;51.910;8.406;2023-08-17T02:09:58;1.93;;;1.57;;
33814;SDS011;20121;51.910;8.406;2023-08-17T02:12:24;1.50;;;1.40;;
33814;SDS011;20121;51.910;8.406;2023-08-17T02:14:50;1.80;;;1.70;;
33814;SDS011;20121;51.910;8.406;2023-08-17T02:17:15;1.70;;;1.60;;
33814;SDS011;20121;51.910;8.406;2023-08-17T02:19:44;1.80;;;1.70;;
33814;SDS011;20121;51.910;8.406;2023-08-17T02:22:12;3.00;;;2.00;;
33814;SDS011;20121;51.910;8.406;2023-08-17T02:24:38;2.10;;;2.00;;
33814;SDS011;20121;51.910;8.406;2023-08-17T02:27:03;2.87;;;2.57;;
33814;SDS011;20121;51.910;8.406;2023-08-17T02:29:29;5.33;;;2.47;;
33814;SDS011;20121;51.910;8.406;2023-08-17T02:31:55;2.30;;;1.90;;
33814;SDS011;20121;51.910;8.406;2023-08-17T02:34:21;3.40;;;2.90;;
33814;SDS011;20121;51.910;8.406;2023-08-17T02:36:46;2.70;;;2.50;;
33814;SDS011;20121;51.910;8.406;2023-08-17T02:39:12;3.13;;;1.70;;
33814;SDS011;20121;51.910;8.406;2023-08-17T02:41:37;2.90;;;1.80;;
33814;SDS011;20121;51.910;8.406;2023-08-17T02:44:04;3.28;;;2.42;;
33814;SDS011;20121;51.910;8.406;2023-08-17T02:46:30;1.80;;;1.60;;
33814;SDS011;20121;51.910;8.406;2023-08-17T02:48:55;2.37;;;2.00;;
33814;SDS011;20121;51.910;8.406;2023-08-17T02:51:21;2.60;;;2.20;;
33814;SDS011;20121;51.910;8.406;2023-08-17T02:53:47;2.00;;;1.80;;
33814;SDS011;20121;51.910;8.406;2023-08-17T02:56:12;2.90;;;1.70;;
33814;SDS011;20121;51.910;8.406;2023-08-17T02:58:38;2.70;;;2.23;;
33814;SDS011;20121;51.910;8.406;2023-08-17T03:01:06;4.07;;;2.60;;
33814;SDS011;20121;51.910;8.406;2023-08-17T03:03:32;2.90;;;2.05;;
33814;SDS011;20121;51.910;8.406;2023-08-17T03:05:57;5.73;;;2.57;;
33814;SDS011;20121;51.910;8.406;2023-08-17T03:08:23;6.17;;;2.17;;
33814;SDS011;20121;51.910;8.406;2023-08-17T03:10:49;1.70;;;1.60;;
33814;SDS011;20121;51.910;8.406;2023-08-17T03:13:14;2.10;;;1.90;;
33814;SDS011;20121;51.910;8.406;2023-08-17T03:15:40;2.50;;;2.23;;
33814;SDS011;20121;51.910;8.406;2023-08-17T03:18:06;2.43;;;2.20;;
33814;SDS011;20121;51.910;8.406;2023-08-17T03:20:32;2.95;;;2.65;;
33814;SDS011;20121;51.910;8.406;2023-08-17T03:22:57;3.67;;;2.40;;
33814;SDS011;20121;51.910;8.406;2023-08-17T03:25:23;5.33;;;2.50;;
33814;SDS011;20121;51.910;8.406;2023-08-17T03:27:48;3.13;;;2.30;;
33814;SDS011;20121;51.910;8.406;2023-08-17T03:30:14;3.50;;;2.40;;
33814;SDS011;20121;51.910;8.406;2023-08-17T03:32:40;2.20;;;2.00;;
33814;SDS011;20121;51.910;8.406;2023-08-17T03:35:06;3.43;;;3.13;;
33814;SDS011;20121;51.910;8.406;2023-08-17T03:37:32;4.40;;;2.28;;
33814;SDS011;20121;51.910;8.406;2023-08-17T03:39:57;4.03;;;2.30;;
33814;SDS011;20121;51.910;8.406;2023-08-17T03:42:25;8.10;;;3.20;;
33814;SDS011;20121;51.910;8.406;2023-08-17T03:44:51;2.90;;;2.30;;
33814;SDS011;20121;51.910;8.406;2023-08-17T03:47:17;3.10;;;2.37;;
33814;SDS011;20121;51.910;8.406;2023-08-17T03:49:42;1.70;;;1.53;;
33814;SDS011;20121;51.910;8.406;2023-08-17T03:52:08;1.90;;;1.80;;
33814;SDS011;20121;51.910;8.406;2023-08-17T03:54:34;3.30;;;2.03;;
33814;SDS011;20121;51.910;8.406;2023-08-17T03:57:00;2.13;;;1.90;;
33814;SDS011;20121;51.910;8.406;2023-08-17T03:59:26;2.80;;;2.30;;
33814;SDS011;20121;51.910;8.406;2023-08-17T04:01:51;2.80;;;2.60;;
33814;SDS011;20121;51.910;8.406;2023-08-17T04:04:17;5.13;;;2.60;;
33814;SDS011;20121;51.910;8.406;2023-08-17T04:06:42;1.87;;;1.77;;
33814;SDS011;20121;51.910;8.406;2023-08-17T04:09:08;2.73;;;2.30;;
33814;SDS011;20121;51.910;8.406;2023-08-17T04:11:37;2.63;;;2.43;;
33814;SDS011;20121;51.910;8.406;2023-08-17T04:14:03;1.95;;;1.80;;
33814;SDS011;20121;51.910;8.406;2023-08-17T04:16:29;3.30;;;2.58;;
33814;SDS011;20121;51.910;8.406;2023-08-17T04:18:54;3.50;;;2.50;;
33814;SDS011;20121;51.910;8.406;2023-08-17T04:21:20;4.90;;;2.47;;
33814;SDS011;20121;51.910;8.406;2023-08-17T04:23:46;2.77;;;2.50;;
33814;SDS011;20121;51.910;8.406;2023-08-17T04:26:12;3.37;;;2.43;;
33814;SDS011;20121;51.910;8.406;2023-08-17T04:28:37;2.20;;;2.00;;
33814;SDS011;20121;51.910;8.406;2023-08-17T04:31:03;2.23;;;2.00;;
33814;SDS011;20121;51.910;8.406;2023-08-17T04:33:29;2.88;;;2.10;;
33814;SDS011;20121;51.910;8.406;2023-08-17T04:35:55;3.37;;;3.07;;
33814;SDS011;20121;51.910;8.406;2023-08-17T04:38:20;2.83;;;2.63;;
33814;SDS011;20121;51.910;8.406;2023-08-17T04:40:46;2.55;;;2.35;;
33814;SDS011;20121;51.910;8.406;2023-08-17T04:43:12;1.97;;;1.63;;
33814;SDS011;20121;51.910;8.406;2023-08-17T04:45:38;2.90;;;2.30;;
33814;SDS011;20121;51.910;8.406;2023-08-17T04:48:04;5.57;;;3.03;;
33814;SDS011;20121;51.910;8.406;2023-08-17T04:50:30;2.97;;;2.78;;
33814;SDS011;20121;51.910;8.406;2023-08-17T04:52:56;7.50;;;3.20;;
33814;SDS011;20121;51.910;8.406;2023-08-17T04:55:22;2.97;;;2.67;;
33814;SDS011;20121;51.910;8.406;2023-08-17T04:57:48;2.38;;;2.17;;
33814;SDS011;20121;51.910;8.406;2023-08-17T05:00:14;4.60;;;3.50;;
33814;SDS011;20121;51.910;8.406;2023-08-17T05:02:41;3.80;;;2.75;;
33814;SDS011;20121;51.910;8.406;2023-08-17T05:05:07;2.65;;;2.42;;
33814;SDS011;20121;51.910;8.406;2023-08-17T05:07:34;6.82;;;5.10;;
33814;SDS011;20121;51.910;8.406;2023-08-17T05:10:00;3.10;;;2.37;;
33814;SDS011;20121;51.910;8.406;2023-08-17T05:12:27;6.35;;;2.97;;
33814;SDS011;20121;51.910;8.406;2023-08-17T05:14:52;3.47;;;3.17;;
33814;SDS011;20121;51.910;8.406;2023-08-17T05:17:18;12.37;;;3.30;;
33814;SDS011;20121;51.910;8.406;2023-08-17T05:19:44;6.73;;;2.23;;
33814;SDS011;20121;51.910;8.406;2023-08-17T05:22:10;2.97;;;2.60;;
33814;SDS011;20121;51.910;8.406;2023-08-17T05:24:36;3.40;;;2.38;;
33814;SDS011;20121;51.910;8.406;2023-08-17T05:27:02;2.30;;;2.10;;
33814;SDS011;20121;51.910;8.406;2023-08-17T05:29:28;2.00;;;1.90;;
33814;SDS011;20121;51.910;8.406;2023-08-17T05:31:53;5.27;;;3.13;;
33814;SDS011;20121;51.910;8.406;2023-08-17T05:34:19;3.40;;;2.53;;
33814;SDS011;20121;51.910;8.406;2023-08-17T05:36:44;5.13;;;2.57;;
33814;SDS011;20121;51.910;8.406;2023-08-17T05:39:10;3.07;;;2.87;;
33814;SDS011;20121;51.910;8.406;2023-08-17T05:41:36;7.17;;;2.70;;
33814;SDS011;20121;51.910;8.406;2023-08-17T05:44:01;3.53;;;2.57;;
33814;SDS011;20121;51.910;8.406;2023-08-17T05:46:27;2.93;;;2.30;;
33814;SDS011;20121;51.910;8.406;2023-08-17T05:48:53;6.43;;;3.00;;
33814;SDS011;20121;51.910;8.406;2023-08-17T05:51:18;4.17;;;2.37;;
33814;SDS011;20121;51.910;8.406;2023-08-17T05:53:44;8.43;;;2.40;;
33814;SDS011;20121;51.910;8.406;2023-08-17T05:56:10;5.47;;;3.20;;
33814;SDS011;20121;51.910;8.406;2023-08-17T05:58:35;5.10;;;2.90;;
33814;SDS011;20121;51.910;8.406;2023-08-17T06:01:08;2.70;;;2.50;;
33814;SDS011;20121;51.910;8.406;2023-08-17T06:03:34;5.30;;;2.42;;
33814;SDS011;20121;51.910;8.406;2023-08-17T06:06:01;3.05;;;2.35;;
33814;SDS011;20121;51.910;8.406;2023-08-17T06:08:27;2.65;;;2.45;;
33814;SDS011;20121;51.910;8.406;2023-08-17T06:10:52;7.33;;;3.80;;
33814;SDS011;20121;51.910;8.406;2023-08-17T06:13:18;3.47;;;2.87;;
33814;SDS011;20121;51.910;8.406;2023-08-17T06:15:44;5.10;;;3.40;;
33814;SDS011;20121;51.910;8.406;2023-08-17T06:18:09;3.10;;;2.67;;
33814;SDS011;20121;51.910;8.406;2023-08-17T06:20:35;5.60;;;2.97;;
33814;SDS011;20121;51.910;8.406;2023-08-17T06:23:01;10.30;;;2.80;;
33814;SDS011;20121;51.910;8.406;2023-08-17T06:25:26;6.30;;;3.70;;
33814;SDS011;20121;51.910;8.406;2023-08-17T06:27:52;4.73;;;3.40;;
33814;SDS011;20121;51.910;8.406;2023-08-17T06:30:18;3.13;;;2.83;;
33814;SDS011;20121;51.910;8.406;2023-08-17T06:32:43;4.90;;;3.90;;
33814;SDS011;20121;51.910;8.406;2023-08-17T06:35:09;4.93;;;3.73;;
33814;SDS011;20121;51.910;8.406;2023-08-17T06:37:35;4.97;;;4.40;;
33814;SDS011;20121;51.910;8.406;2023-08-17T06:40:02;3.92;;;3.10;;
33814;SDS011;20121;51.910;8.406;2023-08-17T06:42:28;5.25;;;3.10;;
33814;SDS011;20121;51.910;8.406;2023-08-17T06:44:54;4.53;;;3.60;;
33814;SDS011;20121;51.910;8.406;2023-08-17T06:47:19;5.07;;;3.87;;
33814;SDS011;20121;51.910;8.406;2023-08-17T06:49:45;4.90;;;4.03;;
33814;SDS011;20121;51.910;8.406;2023-08-17T06:52:11;10.07;;;3.73;;
33814;SDS011;20121;51.910;8.406;2023-08-17T06:54:36;4.33;;;3.90;;
33814;SDS011;20121;51.910;8.406;2023-08-17T06:57:02;5.65;;;3.50;;
33814;SDS011;20121;51.910;8.406;2023-08-17T06:59:28;4.30;;;3.50;;
33814;SDS011;20121;51.910;8.406;2023-08-17T07:01:54;5.60;;;4.67;;
33814;SDS011;20121;51.910;8.406;2023-08-17T07:04:19;5.03;;;3.93;;
33814;SDS011;20121;51.910;8.406;2023-08-17T07:06:45;3.77;;;3.37;;
33814;SDS011;20121;51.910;8.406;2023-08-17T07:09:11;7.88;;;3.88;;
33814;SDS011;20121;51.910;8.406;2023-08-17T07:11:37;6.35;;;4.63;;
33814;SDS011;20121;51.910;8.406;2023-08-17T07:14:04;7.95;;;4.00;;
33814;SDS011;20121;51.910;8.406;2023-08-17T07:16:31;5.65;;;4.22;;
33814;SDS011;20121;51.910;8.406;2023-08-17T07:18:57;3.42;;;3.13;;
33814;SDS011;20121;51.910;8.406;2023-08-17T07:21:23;4.93;;;4.07;;
33814;SDS011;20121;51.910;8.406;2023-08-17T07:23:49;6.27;;;3.60;;
33814;SDS011;20121;51.910;8.406;2023-08-17T07:26:15;3.95;;;3.58;;
33814;SDS011;20121;51.910;8.406;2023-08-17T07:28:43;6.50;;;3.90;;
33814;SDS011;20121;51.910;8.406;2023-08-17T07:31:09;7.63;;;4.25;;
33814;SDS011;20121;51.910;8.406;2023-08-17T07:33:36;5.28;;;3.28;;
33814;SDS011;20121;51.910;8.406;2023-08-17T07:36:01;4.73;;;3.47;;
33814;SDS011;20121;51.910;8.406;2023-08-17T07:38:27;4.43;;;3.57;;
33814;SDS011;20121;51.910;8.406;2023-08-17T07:40:54;7.03;;;3.63;;
33814;SDS011;20121;51.910;8.406;2023-08-17T07:43:20;4.55;;;3.65;;
33814;SDS011;20121;51.910;8.406;2023-08-17T07:45:45;4.77;;;3.80;;
33814;SDS011;20121;51.910;8.406;2023-08-17T07:48:11;6.50;;;3.53;;
33814;SDS011;20121;51.910;8.406;2023-08-17T07:50:37;6.20;;;5.00;;
33814;SDS011;20121;51.910;8.406;2023-08-17T07:53:02;4.87;;;2.93;;
33814;SDS011;20121;51.910;8.406;2023-08-17T07:55:28;5.03;;;3.73;;
33814;SDS011;20121;51.910;8.406;2023-08-17T07:57:54;11.55;;;3.13;;
33814;SDS011;20121;51.910;8.406;2023-08-17T08:00:20;5.60;;;3.60;;
33814;SDS011;20121;51.910;8.406;2023-08-17T08:02:46;4.13;;;2.80;;
33814;SDS011;20121;51.910;8.406;2023-08-17T08:05:11;6.90;;;3.93;;
33814;SDS011;20121;51.910;8.406;2023-08-17T08:07:39;8.48;;;4.40;;
33814;SDS011;20121;51.910;8.406;2023-08-17T08:10:05;6.97;;;3.90;;
33814;SDS011;20121;51.910;8.406;2023-08-17T08:12:30;9.15;;;4.72;;
33814;SDS011;20121;51.910;8.406;2023-08-17T08:14:56;6.10;;;4.00;;
33814;SDS011;20121;51.910;8.406;2023-08-17T08:17:22;5.27;;;3.20;;
33814;SDS011;20121;51.910;8.406;2023-08-17T08:19:47;4.20;;;3.30;;
33814;SDS011;20121;51.910;8.406;2023-08-17T08:22:13;3.20;;;2.90;;
33814;SDS011;20121;51.910;8.406;2023-08-17T08:24:38;5.10;;;3.10;;
33814;SDS011;20121;51.910;8.406;2023-08-17T08:27:06;5.90;;;3.33;;
33814;SDS011;20121;51.910;8.406;2023-08-17T08:29:31;4.50;;;3.30;;
33814;SDS011;20121;51.910;8.406;2023-08-17T08:31:57;6.40;;;3.70;;
33814;SDS011;20121;51.910;8.406;2023-08-17T08:34:24;5.50;;;3.92;;
33814;SDS011;20121;51.910;8.406;2023-08-17T08:36:50;8.60;;;4.23;;
33814;SDS011;20121;51.910;8.406;2023-08-17T08:39:16;4.27;;;3.87;;
33814;SDS011;20121;51.910;8.406;2023-08-17T08:41:41;8.13;;;4.30;;
33814;SDS011;20121;51.910;8.406;2023-08-17T08:44:07;9.77;;;5.50;;
33814;SDS011;20121;51.910;8.406;2023-08-17T08:46:33;5.60;;;3.80;;
33814;SDS011;20121;51.910;8.406;2023-08-17T08:49:00;8.23;;;4.05;;
33814;SDS011;20121;51.910;8.406;2023-08-17T08:51:28;4.40;;;3.88;;
33814;SDS011;20121;51.910;8.406;2023-08-17T08:54:01;4.53;;;3.40;;
33814;SDS011;20121;51.910;8.406;2023-08-17T08:56:31;5.15;;;3.97;;
33814;SDS011;20121;51.910;8.406;2023-08-17T08:58:59;7.05;;;3.30;;
33814;SDS011;20121;51.910;8.406;2023-08-17T09:01:28;7.43;;;4.68;;
33814;SDS011;20121;51.910;8.406;2023-08-17T09:03:55;7.82;;;4.20;;
33814;SDS011;20121;51.910;8.406;2023-08-17T09:06:23;13.43;;;4.00;;
33814;SDS011;20121;51.910;8.406;2023-08-17T09:08:51;4.03;;;3.58;;
33814;SDS011;20121;51.910;8.406;2023-08-17T09:11:17;5.60;;;3.40;;
33814;SDS011;20121;51.910;8.406;2023-08-17T09:13:43;4.13;;;3.80;;
33814;SDS011;20121;51.910;8.406;2023-08-17T09:16:09;4.47;;;3.13;;
33814;SDS011;20121;51.910;8.406;2023-08-17T09:18:34;5.87;;;3.77;;
33814;SDS011;20121;51.910;8.406;2023-08-17T09:21:00;3.90;;;3.47;;
33814;SDS011;20121;51.910;8.406;2023-08-17T09:23:26;7.38;;;4.30;;
33814;SDS011;20121;51.910;8.406;2023-08-17T09:25:52;5.50;;;3.70;;
33814;SDS011;20121;51.910;8.406;2023-08-17T09:28:23;5.38;;;4.22;;
33814;SDS011;20121;51.910;8.406;2023-08-17T09:30:49;4.65;;;3.30;;
33814;SDS011;20121;51.910;8.406;2023-08-17T09:33:23;4.00;;;3.60;;
33814;SDS011;20121;51.910;8.406;2023-08-17T09:35:52;13.15;;;3.58;;
33814;SDS011;20121;51.910;8.406;2023-08-17T09:38:19;3.65;;;3.20;;
33814;SDS011;20121;51.910;8.406;2023-08-17T09:40:46;4.13;;;3.72;;
33814;SDS011;20121;51.910;8.406;2023-08-17T09:43:13;11.38;;;4.63;;
33814;SDS011;20121;51.910;8.406;2023-08-17T09:45:40;6.50;;;3.35;;
33814;SDS011;20121;51.910;8.406;2023-08-17T09:48:09;4.93;;;4.00;;
33814;SDS011;20121;51.910;8.406;2023-08-17T09:50:35;7.25;;;4.07;;
33814;SDS011;20121;51.910;8.406;2023-08-17T09:53:04;8.13;;;4.30;;
33814;SDS011;20121;51.910;8.406;2023-08-17T09:55:30;6.00;;;3.88;;
33814;SDS011;20121;51.910;8.406;2023-08-17T09:57:59;9.63;;;4.32;;
33814;SDS011;20121;51.910;8.406;2023-08-17T10:00:25;3.90;;;3.60;;
33814;SDS011;20121;51.910;8.406;2023-08-17T10:02:52;7.93;;;4.20;;
33814;SDS011;20121;51.910;8.406;2023-08-17T10:05:19;10.93;;;4.43;;
33814;SDS011;20121;51.910;8.406;2023-08-17T10:07:51;4.47;;;3.53;;
33814;SDS011;20121;51.910;8.406;2023-08-17T10:10:22;6.22;;;3.85;;
33814;SDS011;20121;51.910;8.406;2023-08-17T10:13:01;4.80;;;3.50;;
33814;SDS011;20121;51.910;8.406;2023-08-17T10:15:34;4.93;;;3.63;;
33814;SDS011;20121;51.910;8.406;2023-08-17T10:21:07;8.10;;;4.45;;
33814;SDS011;20121;51.910;8.406;2023-08-17T10:23:38;7.15;;;3.35;;
33814;SDS011;20121;51.910;8.406;2023-08-17T10:26:04;3.72;;;3.33;;
33814;SDS011;20121;51.910;8.406;2023-08-17T10:28:33;3.63;;;3.03;;
33814;SDS011;20121;51.910;8.406;2023-08-17T10:30:59;5.05;;;2.75;;
33814;SDS011;20121;51.910;8.406;2023-08-17T10:33:25;4.57;;;2.55;;
33814;SDS011;20121;51.910;8.406;2023-08-17T10:35:52;6.57;;;3.80;;
33814;SDS011;20121;51.910;8.406;2023-08-17T10:38:19;7.85;;;3.67;;
33814;SDS011;20121;51.910;8.406;2023-08-17T10:40:44;5.30;;;3.90;;
33814;SDS011;20121;51.910;8.406;2023-08-17T10:43:33;8.18;;;3.35;;
33814;SDS011;20121;51.910;8.406;2023-08-17T10:46:20;5.20;;;3.40;;
33814;SDS011;20121;51.910;8.406;2023-08-17T10:48:45;6.38;;;5.07;;
33814;SDS011;20121;51.910;8.406;2023-08-17T10:51:11;4.53;;;3.83;;
33814;SDS011;20121;51.910;8.406;2023-08-17T10:53:42;7.57;;;4.50;;
33814;SDS011;20121;51.910;8.406;2023-08-17T10:56:12;5.80;;;2.83;;
33814;SDS011;20121;51.910;8.406;2023-08-17T10:58:44;4.75;;;3.75;;
33814;SDS011;20121;51.910;8.406;2023-08-17T11:01:09;7.30;;;3.70;;
33814;SDS011;20121;51.910;8.406;2023-08-17T11:03:36;4.30;;;2.88;;
33814;SDS011;20121;51.910;8.406;2023-08-17T11:06:19;4.13;;;3.30;;
33814;SDS011;20121;51.910;8.406;2023-08-17T11:08:52;7.00;;;4.50;;
33814;SDS011;20121;51.910;8.406;2023-08-17T11:11:20;4.22;;;3.55;;
33814;SDS011;20121;51.910;8.406;2023-08-17T11:13:47;5.00;;;3.60;;
33814;SDS011;20121;51.910;8.406;2023-08-17T11:16:14;4.72;;;3.40;;
33814;SDS011;20121;51.910;8.406;2023-08-17T11:18:41;4.93;;;3.03;;
33814;SDS011;20121;51.910;8.406;2023-08-17T11:21:07;4.60;;;3.17;;
33814;SDS011;20121;51.910;8.406;2023-08-17T11:23:34;4.20;;;3.60;;
33814;SDS011;20121;51.910;8.406;2023-08-17T11:26:01;4.85;;;3.72;;
33814;SDS011;20121;51.910;8.406;2023-08-17T11:28:29;5.20;;;4.25;;
33814;SDS011;20121;51.910;8.406;2023-08-17T11:31:04;5.25;;;3.70;;
33814;SDS011;20121;51.910;8.406;2023-08-17T11:33:31;12.65;;;4.20;;
33814;SDS011;20121;51.910;8.406;2023-08-17T11:35:58;4.40;;;3.08;;
33814;SDS011;20121;51.910;8.406;2023-08-17T11:38:46;6.75;;;4.72;;
33814;SDS011;20121;51.910;8.406;2023-08-17T11:41:11;5.53;;;3.42;;
33814;SDS011;20121;51.910;8.406;2023-08-17T11:43:38;7.85;;;3.35;;
33814;SDS011;20121;51.910;8.406;2023-08-17T11:46:04;6.53;;;4.33;;
33814;SDS011;20121;51.910;8.406;2023-08-17T11:48:30;4.97;;;4.13;;
33814;SDS011;20121;51.910;8.406;2023-08-17T11:50:56;4.07;;;2.78;;
33814;SDS011;20121;51.910;8.406;2023-08-17T11:53:23;4.50;;;3.47;;
33814;SDS011;20121;51.910;8.406;2023-08-17T11:55:48;7.67;;;4.33;;
33814;SDS011;20121;51.910;8.406;2023-08-17T11:58:14;6.47;;;3.43;;
33814;SDS011;20121;51.910;8.406;2023-08-17T12:00:41;4.03;;;3.50;;
33814;SDS011;20121;51.910;8.406;2023-08-17T12:03:14;8.05;;;4.43;;
33814;SDS011;20121;51.910;8.406;2023-08-17T12:05:45;4.28;;;3.80;;
33814;SDS011;20121;51.910;8.406;2023-08-17T12:08:12;7.57;;;4.00;;
33814;SDS011;20121;51.910;8.406;2023-08-17T12:10:39;3.78;;;2.60;;
33814;SDS011;20121;51.910;8.406;2023-08-17T12:13:05;3.23;;;2.93;;
33814;SDS011;20121;51.910;8.406;2023-08-17T12:15:31;3.40;;;3.00;;
33814;SDS011;20121;51.910;8.406;2023-08-17T12:17:58;4.03;;;3.60;;
33814;SDS011;20121;51.910;8.406;2023-08-17T12:20:25;3.60;;;2.70;;
33814;SDS011;20121;51.910;8.406;2023-08-17T12:22:51;3.23;;;2.93;;
33814;SDS011;20121;51.910;8.406;2023-08-17T12:25:19;6.40;;;3.40;;
33814;SDS011;20121;51.910;8.406;2023-08-17T12:27:46;5.72;;;3.88;;
33814;SDS011;20121;51.910;8.406;2023-08-17T12:30:13;5.68;;;3.67;;
33814;SDS011;20121;51.910;8.406;2023-08-17T12:32:50;7.10;;;3.30;;
33814;SDS011;20121;51.910;8.406;2023-08-17T12:35:15;3.63;;;3.20;;
33814;SDS011;20121;51.910;8.406;2023-08-17T12:37:41;5.13;;;3.10;;
33814;SDS011;20121;51.910;8.406;2023-08-17T12:40:07;6.27;;;3.47;;
33814;SDS011;20121;51.910;8.406;2023-08-17T12:42:34;3.50;;;3.10;;
33814;SDS011;20121;51.910;8.406;2023-08-17T12:45:00;4.40;;;3.60;;
33814;SDS011;20121;51.910;8.406;2023-08-17T12:47:26;2.93;;;2.63;;
33814;SDS011;20121;51.910;8.406;2023-08-17T12:49:51;3.87;;;3.10;;
33814;SDS011;20121;51.910;8.406;2023-08-17T12:52:17;5.43;;;3.33;;
33814;SDS011;20121;51.910;8.406;2023-08-17T12:54:43;4.90;;;4.00;;
33814;SDS011;20121;51.910;8.406;2023-08-17T12:57:08;4.37;;;3.70;;
33814;SDS011;20121;51.910;8.406;2023-08-17T12:59:34;8.20;;;3.03;;
33814;SDS011;20121;51.910;8.406;2023-08-17T13:01:59;3.63;;;3.33;;
33814;SDS011;20121;51.910;8.406;2023-08-17T13:04:25;3.47;;;3.17;;
33814;SDS011;20121;51.910;8.406;2023-08-17T13:06:51;6.17;;;4.10;;
33814;SDS011;20121;51.910;8.406;2023-08-17T13:09:17;4.43;;;2.43;;
33814;SDS011;20121;51.910;8.406;2023-08-17T13:11:44;6.13;;;3.70;;
33814;SDS011;20121;51.910;8.406;2023-08-17T13:14:10;4.85;;;3.75;;
33814;SDS011;20121;51.910;8.406;2023-08-17T13:16:36;5.05;;;3.65;;
33814;SDS011;20121;51.910;8.406;2023-08-17T13:19:02;4.43;;;3.50;;
33814;SDS011;20121;51.910;8.406;2023-08-17T13:21:28;4.53;;;3.50;;
33814;SDS011;20121;51.910;8.406;2023-08-17T13:23:53;5.60;;;3.93;;
33814;SDS011;20121;51.910;8.406;2023-08-17T13:26:20;3.30;;;2.80;;
33814;SDS011;20121;51.910;8.406;2023-08-17T13:28:47;6.45;;;4.13;;
33814;SDS011;20121;51.910;8.406;2023-08-17T13:31:12;3.17;;;2.87;;
33814;SDS011;20121;51.910;8.406;2023-08-17T13:33:38;4.57;;;3.23;;
33814;SDS011;20121;51.910;8.406;2023-08-17T13:36:04;3.97;;;3.27;;
33814;SDS011;20121;51.910;8.406;2023-08-17T13:38:30;6.20;;;3.53;;
33814;SDS011;20121;51.910;8.406;2023-08-17T13:40:56;4.13;;;3.30;;
33814;SDS011;20121;51.910;8.406;2023-08-17T13:43:22;4.67;;;3.80;;
33814;SDS011;20121;51.910;8.406;2023-08-17T13:45:47;4.43;;;3.43;;
33814;SDS011;20121;51.910;8.406;2023-08-17T13:48:13;4.03;;;3.30;;
33814;SDS011;20121;51.910;8.406;2023-08-17T13:50:39;3.50;;;2.33;;
33814;SDS011;20121;51.910;8.406;2023-08-17T13:53:05;4.87;;;2.80;;
33814;SDS011;20121;51.910;8.406;2023-08-17T13:55:30;4.73;;;3.13;;
33814;SDS011;20121;51.910;8.406;2023-08-17T13:57:57;7.17;;;4.10;;
33814;SDS011;20121;51.910;8.406;2023-08-17T14:00:23;7.55;;;3.45;;
33814;SDS011;20121;51.910;8.406;2023-08-17T14:02:49;3.55;;;3.25;;
33814;SDS011;20121;51.910;8.406;2023-08-17T14:05:15;3.73;;;2.83;;
33814;SDS011;20121;51.910;8.406;2023-08-17T14:07:40;6.30;;;3.60;;
33814;SDS011;20121;51.910;8.406;2023-08-17T14:10:06;5.00;;;3.60;;
33814;SDS011;20121;51.910;8.406;2023-08-17T14:12:32;4.97;;;3.37;;
33814;SDS011;20121;51.910;8.406;2023-08-17T14:14:58;4.95;;;3.10;;
33814;SDS011;20121;51.910;8.406;2023-08-17T14:17:24;3.13;;;2.83;;
33814;SDS011;20121;51.910;8.406;2023-08-17T14:19:50;4.37;;;3.37;;
33814;SDS011;20121;51.910;8.406;2023-08-17T14:22:16;3.50;;;3.07;;
33814;SDS011;20121;51.910;8.406;2023-08-17T14:24:42;3.20;;;2.83;;
33814;SDS011;20121;51.910;8.406;2023-08-17T14:27:07;2.73;;;2.10;;
33814;SDS011;20121;51.910;8.406;2023-08-17T14:29:33;3.87;;;2.83;;
33814;SDS011;20121;51.910;8.406;2023-08-17T14:31:59;3.70;;;3.40;;
33814;SDS011;20121;51.910;8.406;2023-08-17T14:34:24;6.13;;;3.90;;
33814;SDS011;20121;51.910;8.406;2023-08-17T14:36:50;3.47;;;3.17;;
33814;SDS011;20121;51.910;8.406;2023-08-17T14:39:15;9.33;;;2.73;;
33814;SDS011;20121;51.910;8.406;2023-08-17T14:41:41;6.53;;;3.93;;
33814;SDS011;20121;51.910;8.406;2023-08-17T14:44:07;4.37;;;3.00;;
33814;SDS011;20121;51.910;8.406;2023-08-17T14:46:32;2.80;;;2.40;;
33814;SDS011;20121;51.910;8.406;2023-08-17T14:48:58;3.73;;;3.33;;
33814;SDS011;20121;51.910;8.406;2023-08-17T14:51:24;3.23;;;2.50;;